Cenk Y — TCZV7 — position and weather

sailwx.info

Track history (hours):
 
Tides and Currents Weather Stations Pressure Air Temp Water Temp Dewpoint Dewpoint Depression Visibility Wind Speed Wind Dir Waves Ship Positions

Cenk Y

Last reported at 2017-Jun-29 09:12 UTC. Time now 2017-Jun-29 10:57 UTC.
Position N 45°26' E 031°02'.

Length 150 m; draft 4.7 m.

Type: Ship. MMSI: 271042575.

Date/timePositionNaut miles runAvg speedWind from/ knotsBaromVisibWave heightAir tempDewpointWater temp
2017-Jun-29 09:12N 45°26' E 031°02'315.0
2017-Jun-29 09:00N 45°23' E 031°03'3814.9
2017-Jun-29 06:29N 44°46' E 031°11'714.9
2017-Jun-29 06:00N 44°39' E 031°12'1814.8
2017-Jun-29 04:49N 44°22' E 031°14'614.4
2017-Jun-29 04:23N 44°16' E 031°15'614.4
2017-Jun-29 04:00N 44°10' E 031°16'814.9
2017-Jun-29 03:29N 44°02' E 031°18'  
2017-Jun-20 21:12N 46°18' E 030°43'  
Track history (hours):
 
Tides and Currents Weather Stations Pressure Air Temp Water Temp Dewpoint Dewpoint Depression Visibility Wind Speed Wind Dir Waves Ship Positions

Cenk Y

Last reported at 2017-Jun-29 09:12 UTC. Time now 2017-Jun-29 10:57 UTC.
Position N 45°26' E 031°02'.

Length 150 m; draft 4.7 m.

Type: Ship. MMSI: 271042575.

Date/timePositionNaut miles runAvg speedWind from/ knotsBaromVisibWave heightAir tempDewpointWater temp
2017-Jun-29 09:12N 45°26' E 031°02'315.0
2017-Jun-29 09:00N 45°23' E 031°03'3814.9
2017-Jun-29 06:29N 44°46' E 031°11'714.9
2017-Jun-29 06:00N 44°39' E 031°12'1814.8
2017-Jun-29 04:49N 44°22' E 031°14'614.4
2017-Jun-29 04:23N 44°16' E 031°15'614.4
2017-Jun-29 04:00N 44°10' E 031°16'814.9
2017-Jun-29 03:29N 44°02' E 031°18'  
2017-Jun-20 21:12N 46°18' E 030°43'  

Dump ship's entire track history